sensor_id;sensor_type;location;lat;lon;timestamp;pressure;altitude;pressure_sealevel;temperature;humidity
1776;BME280;885;42.626;23.200;2023-05-10T00:00:39;70618.47;;;-143.00;100.00
1776;BME280;885;42.626;23.200;2023-05-10T00:03:05;70618.47;;;-143.00;100.00
1776;BME280;885;42.626;23.200;2023-05-10T00:05:32;70618.47;;;-143.00;100.00
1776;BME280;885;42.626;23.200;2023-05-10T00:07:59;70618.47;;;-143.00;100.00
1776;BME280;885;42.626;23.200;2023-05-10T00:10:27;70618.47;;;-143.00;100.00
1776;BME280;885;42.626;23.200;2023-05-10T00:12:54;70618.47;;;-143.00;100.00
1776;BME280;885;42.626;23.200;2023-05-10T00:15:21;70618.47;;;-143.00;100.00
1776;BME280;885;42.626;23.200;2023-05-10T00:17:48;70618.47;;;-143.00;100.00
1776;BME280;885;42.626;23.200;2023-05-10T00:20:15;70618.47;;;-143.00;100.00
1776;BME280;885;42.626;23.200;2023-05-10T00:22:41;70618.47;;;-143.00;100.00
1776;BME280;885;42.626;23.200;2023-05-10T00:25:08;70618.47;;;-143.00;100.00
1776;BME280;885;42.626;23.200;2023-05-10T00:27:37;70618.47;;;-143.00;100.00
1776;BME280;885;42.626;23.200;2023-05-10T00:30:04;70618.47;;;-143.00;100.00
1776;BME280;885;42.626;23.200;2023-05-10T00:32:32;70618.47;;;-143.00;100.00
1776;BME280;885;42.626;23.200;2023-05-10T00:34:58;70618.47;;;-143.00;100.00
1776;BME280;885;42.626;23.200;2023-05-10T00:37:25;70618.47;;;-143.00;100.00
1776;BME280;885;42.626;23.200;2023-05-10T00:39:52;70618.47;;;-143.00;100.00
1776;BME280;885;42.626;23.200;2023-05-10T00:42:19;70618.47;;;-143.00;100.00
1776;BME280;885;42.626;23.200;2023-05-10T00:44:47;70618.47;;;-143.00;100.00
1776;BME280;885;42.626;23.200;2023-05-10T00:47:14;70618.47;;;-143.00;100.00
1776;BME280;885;42.626;23.200;2023-05-10T00:49:42;70618.47;;;-143.00;100.00
1776;BME280;885;42.626;23.200;2023-05-10T00:52:09;70618.47;;;-143.00;100.00
1776;BME280;885;42.626;23.200;2023-05-10T00:54:36;70618.47;;;-143.00;100.00
1776;BME280;885;42.626;23.200;2023-05-10T00:57:03;70618.47;;;-143.00;100.00
1776;BME280;885;42.626;23.200;2023-05-10T00:59:30;70618.47;;;-143.00;100.00
1776;BME280;885;42.626;23.200;2023-05-10T01:01:59;70618.47;;;-143.00;100.00
1776;BME280;885;42.626;23.200;2023-05-10T01:04:25;70618.47;;;-143.00;100.00
1776;BME280;885;42.626;23.200;2023-05-10T01:06:53;70618.47;;;-143.00;100.00
1776;BME280;885;42.626;23.200;2023-05-10T01:09:20;70618.47;;;-143.00;100.00
1776;BME280;885;42.626;23.200;2023-05-10T01:11:48;70618.47;;;-143.00;100.00
1776;BME280;885;42.626;23.200;2023-05-10T01:14:17;70618.47;;;-143.00;100.00
1776;BME280;885;42.626;23.200;2023-05-10T01:16:46;70618.47;;;-143.00;100.00
1776;BME280;885;42.626;23.200;2023-05-10T01:19:19;70618.47;;;-143.00;100.00
1776;BME280;885;42.626;23.200;2023-05-10T01:21:50;70618.47;;;-143.00;100.00
1776;BME280;885;42.626;23.200;2023-05-10T01:24:44;70618.47;;;-143.00;100.00
1776;BME280;885;42.626;23.200;2023-05-10T01:30:32;70618.47;;;-143.00;100.00
1776;BME280;885;42.626;23.200;2023-05-10T01:33:09;70618.47;;;-143.00;100.00
1776;BME280;885;42.626;23.200;2023-05-10T01:35:40;70618.47;;;-143.00;100.00
1776;BME280;885;42.626;23.200;2023-05-10T01:38:13;70618.47;;;-143.00;100.00
1776;BME280;885;42.626;23.200;2023-05-10T01:40:48;70618.47;;;-143.00;100.00
1776;BME280;885;42.626;23.200;2023-05-10T01:43:22;70618.47;;;-143.00;100.00
1776;BME280;885;42.626;23.200;2023-05-10T01:45:59;70618.47;;;-143.00;100.00
1776;BME280;885;42.626;23.200;2023-05-10T01:48:32;70618.47;;;-143.00;100.00
1776;BME280;885;42.626;23.200;2023-05-10T01:51:00;70618.47;;;-143.00;100.00
1776;BME280;885;42.626;23.200;2023-05-10T01:53:27;70618.47;;;-143.00;100.00
1776;BME280;885;42.626;23.200;2023-05-10T01:55:55;70618.47;;;-143.00;100.00
1776;BME280;885;42.626;23.200;2023-05-10T01:58:26;70618.47;;;-143.00;100.00
1776;BME280;885;42.626;23.200;2023-05-10T02:00:54;70618.47;;;-143.00;100.00
1776;BME280;885;42.626;23.200;2023-05-10T02:03:23;70618.47;;;-143.00;100.00
1776;BME280;885;42.626;23.200;2023-05-10T02:05:52;70618.47;;;-143.00;100.00
1776;BME280;885;42.626;23.200;2023-05-10T02:08:20;70618.47;;;-143.00;100.00
1776;BME280;885;42.626;23.200;2023-05-10T02:10:50;70618.47;;;-143.00;100.00
1776;BME280;885;42.626;23.200;2023-05-10T02:13:18;70618.47;;;-143.00;100.00
1776;BME280;885;42.626;23.200;2023-05-10T02:15:47;70618.47;;;-143.00;100.00
1776;BME280;885;42.626;23.200;2023-05-10T02:18:15;70618.47;;;-143.00;100.00
1776;BME280;885;42.626;23.200;2023-05-10T02:20:43;70618.47;;;-143.00;100.00
1776;BME280;885;42.626;23.200;2023-05-10T02:23:13;70618.47;;;-143.00;100.00
1776;BME280;885;42.626;23.200;2023-05-10T02:25:43;70618.47;;;-143.00;100.00
1776;BME280;885;42.626;23.200;2023-05-10T02:28:11;70618.47;;;-143.00;100.00
1776;BME280;885;42.626;23.200;2023-05-10T02:30:38;70618.47;;;-143.00;100.00
1776;BME280;885;42.626;23.200;2023-05-10T02:33:06;70618.47;;;-143.00;100.00
1776;BME280;885;42.626;23.200;2023-05-10T02:35:33;70618.47;;;-143.00;100.00
1776;BME280;885;42.626;23.200;2023-05-10T02:38:02;70618.47;;;-143.00;100.00
1776;BME280;885;42.626;23.200;2023-05-10T02:40:30;70618.47;;;-143.00;100.00
1776;BME280;885;42.626;23.200;2023-05-10T02:42:59;70618.47;;;-143.00;100.00
1776;BME280;885;42.626;23.200;2023-05-10T02:45:30;70618.47;;;-143.00;100.00
1776;BME280;885;42.626;23.200;2023-05-10T02:47:58;70618.47;;;-143.00;100.00
1776;BME280;885;42.626;23.200;2023-05-10T02:50:27;70618.47;;;-143.00;100.00
1776;BME280;885;42.626;23.200;2023-05-10T02:53:00;70618.47;;;-143.00;100.00
1776;BME280;885;42.626;23.200;2023-05-10T02:55:34;70618.47;;;-143.00;100.00
1776;BME280;885;42.626;23.200;2023-05-10T02:58:02;70618.47;;;-143.00;100.00
1776;BME280;885;42.626;23.200;2023-05-10T03:00:29;70618.47;;;-143.00;100.00
1776;BME280;885;42.626;23.200;2023-05-10T03:02:56;70618.47;;;-143.00;100.00
1776;BME280;885;42.626;23.200;2023-05-10T03:05:22;70618.47;;;-143.00;100.00
1776;BME280;885;42.626;23.200;2023-05-10T03:07:49;70618.47;;;-143.00;100.00
1776;BME280;885;42.626;23.200;2023-05-10T03:10:17;70618.47;;;-143.00;100.00
1776;BME280;885;42.626;23.200;2023-05-10T03:12:56;70618.47;;;-143.00;100.00
1776;BME280;885;42.626;23.200;2023-05-10T03:15:34;70618.47;;;-143.00;100.00
1776;BME280;885;42.626;23.200;2023-05-10T03:18:07;70618.47;;;-143.00;100.00
1776;BME280;885;42.626;23.200;2023-05-10T03:20:41;70618.47;;;-143.00;100.00
1776;BME280;885;42.626;23.200;2023-05-10T03:23:12;70618.47;;;-143.00;100.00
1776;BME280;885;42.626;23.200;2023-05-10T03:25:41;70618.47;;;-143.00;100.00
1776;BME280;885;42.626;23.200;2023-05-10T03:28:11;70618.47;;;-143.00;100.00
1776;BME280;885;42.626;23.200;2023-05-10T03:30:39;70618.47;;;-143.00;100.00
1776;BME280;885;42.626;23.200;2023-05-10T03:33:07;70618.47;;;-143.00;100.00
1776;BME280;885;42.626;23.200;2023-05-10T03:35:34;70618.47;;;-143.00;100.00
1776;BME280;885;42.626;23.200;2023-05-10T03:38:00;70618.47;;;-143.00;100.00
1776;BME280;885;42.626;23.200;2023-05-10T03:40:28;70618.47;;;-143.00;100.00
1776;BME280;885;42.626;23.200;2023-05-10T03:42:57;70618.47;;;-143.00;100.00
1776;BME280;885;42.626;23.200;2023-05-10T03:45:25;70618.47;;;-143.00;100.00
1776;BME280;885;42.626;23.200;2023-05-10T03:47:52;70618.47;;;-143.00;100.00
1776;BME280;885;42.626;23.200;2023-05-10T03:50:19;70618.47;;;-143.00;100.00
1776;BME280;885;42.626;23.200;2023-05-10T03:52:46;70618.47;;;-143.00;100.00
1776;BME280;885;42.626;23.200;2023-05-10T03:55:12;70618.47;;;-143.00;100.00
1776;BME280;885;42.626;23.200;2023-05-10T03:57:39;70618.47;;;-143.00;100.00
1776;BME280;885;42.626;23.200;2023-05-10T04:00:06;70618.47;;;-143.00;100.00
1776;BME280;885;42.626;23.200;2023-05-10T04:02:35;70618.47;;;-143.00;100.00
1776;BME280;885;42.626;23.200;2023-05-10T04:05:02;70618.47;;;-143.00;100.00
1776;BME280;885;42.626;23.200;2023-05-10T04:07:28;70618.47;;;-143.00;100.00
1776;BME280;885;42.626;23.200;2023-05-10T04:09:55;70618.47;;;-143.00;100.00
1776;BME280;885;42.626;23.200;2023-05-10T04:12:22;70618.47;;;-143.00;100.00
1776;BME280;885;42.626;23.200;2023-05-10T04:14:49;70618.47;;;-143.00;100.00
1776;BME280;885;42.626;23.200;2023-05-10T04:17:16;70618.47;;;-143.00;100.00
1776;BME280;885;42.626;23.200;2023-05-10T04:19:44;70618.47;;;-143.00;100.00
1776;BME280;885;42.626;23.200;2023-05-10T04:22:11;70618.47;;;-143.00;100.00
1776;BME280;885;42.626;23.200;2023-05-10T04:24:38;70618.47;;;-143.00;100.00
1776;BME280;885;42.626;23.200;2023-05-10T04:27:04;70618.47;;;-143.00;100.00
1776;BME280;885;42.626;23.200;2023-05-10T04:29:31;70618.47;;;-143.00;100.00
1776;BME280;885;42.626;23.200;2023-05-10T04:31:58;70618.47;;;-143.00;100.00
1776;BME280;885;42.626;23.200;2023-05-10T04:34:24;70618.47;;;-143.00;100.00
1776;BME280;885;42.626;23.200;2023-05-10T04:36:52;70618.47;;;-143.00;100.00
1776;BME280;885;42.626;23.200;2023-05-10T04:39:19;70618.47;;;-143.00;100.00
1776;BME280;885;42.626;23.200;2023-05-10T04:41:46;70618.47;;;-143.00;100.00
1776;BME280;885;42.626;23.200;2023-05-10T04:44:13;70618.47;;;-143.00;100.00
1776;BME280;885;42.626;23.200;2023-05-10T04:46:39;70618.47;;;-143.00;100.00
1776;BME280;885;42.626;23.200;2023-05-10T04:49:06;70618.47;;;-143.00;100.00
1776;BME280;885;42.626;23.200;2023-05-10T04:51:33;70618.47;;;-143.00;100.00
1776;BME280;885;42.626;23.200;2023-05-10T04:54:01;70618.47;;;-143.00;100.00
1776;BME280;885;42.626;23.200;2023-05-10T04:56:28;70618.47;;;-143.00;100.00
1776;BME280;885;42.626;23.200;2023-05-10T04:58:54;70618.47;;;-143.00;100.00
1776;BME280;885;42.626;23.200;2023-05-10T05:01:21;70618.47;;;-143.00;100.00
1776;BME280;885;42.626;23.200;2023-05-10T05:03:48;70618.47;;;-143.00;100.00
1776;BME280;885;42.626;23.200;2023-05-10T05:06:15;70618.47;;;-143.00;100.00
1776;BME280;885;42.626;23.200;2023-05-10T05:08:41;70618.47;;;-143.00;100.00
1776;BME280;885;42.626;23.200;2023-05-10T05:11:10;70618.47;;;-143.00;100.00
1776;BME280;885;42.626;23.200;2023-05-10T05:13:36;70618.47;;;-143.00;100.00
1776;BME280;885;42.626;23.200;2023-05-10T05:16:05;70618.47;;;-143.00;100.00
1776;BME280;885;42.626;23.200;2023-05-10T05:18:31;70618.47;;;-143.00;100.00
1776;BME280;885;42.626;23.200;2023-05-10T05:20:58;70618.47;;;-143.00;100.00
1776;BME280;885;42.626;23.200;2023-05-10T05:23:25;70618.47;;;-143.00;100.00
1776;BME280;885;42.626;23.200;2023-05-10T05:25:52;70618.47;;;-143.00;100.00
1776;BME280;885;42.626;23.200;2023-05-10T05:28:20;70618.47;;;-143.00;100.00
1776;BME280;885;42.626;23.200;2023-05-10T05:30:47;70618.47;;;-143.00;100.00
1776;BME280;885;42.626;23.200;2023-05-10T05:33:14;70618.47;;;-143.00;100.00
1776;BME280;885;42.626;23.200;2023-05-10T05:35:41;70618.47;;;-143.00;100.00
1776;BME280;885;42.626;23.200;2023-05-10T05:38:12;70618.47;;;-143.00;100.00
1776;BME280;885;42.626;23.200;2023-05-10T05:40:39;70618.47;;;-143.00;100.00
1776;BME280;885;42.626;23.200;2023-05-10T05:43:06;70618.47;;;-143.00;100.00
1776;BME280;885;42.626;23.200;2023-05-10T05:45:34;70618.47;;;-143.00;100.00
1776;BME280;885;42.626;23.200;2023-05-10T05:48:01;70618.47;;;-143.00;100.00
1776;BME280;885;42.626;23.200;2023-05-10T05:50:27;70618.47;;;-143.00;100.00
1776;BME280;885;42.626;23.200;2023-05-10T05:52:54;70618.47;;;-143.00;100.00
1776;BME280;885;42.626;23.200;2023-05-10T05:55:21;70618.47;;;-143.00;100.00
1776;BME280;885;42.626;23.200;2023-05-10T05:57:49;70618.47;;;-143.00;100.00
1776;BME280;885;42.626;23.200;2023-05-10T06:00:16;70618.47;;;-143.00;100.00
1776;BME280;885;42.626;23.200;2023-05-10T06:02:44;70618.47;;;-143.00;100.00
1776;BME280;885;42.626;23.200;2023-05-10T06:05:11;70618.47;;;-143.00;100.00
1776;BME280;885;42.626;23.200;2023-05-10T06:07:39;70618.47;;;-143.00;100.00
1776;BME280;885;42.626;23.200;2023-05-10T06:10:08;70618.47;;;-143.00;100.00
1776;BME280;885;42.626;23.200;2023-05-10T06:12:34;70618.47;;;-143.00;100.00
1776;BME280;885;42.626;23.200;2023-05-10T06:15:01;70618.47;;;-143.00;100.00
1776;BME280;885;42.626;23.200;2023-05-10T06:17:28;70618.47;;;-143.00;100.00
1776;BME280;885;42.626;23.200;2023-05-10T06:19:56;70618.47;;;-143.00;100.00
1776;BME280;885;42.626;23.200;2023-05-10T06:22:23;70618.47;;;-143.00;100.00
1776;BME280;885;42.626;23.200;2023-05-10T06:24:50;70618.47;;;-143.00;100.00
1776;BME280;885;42.626;23.200;2023-05-10T06:27:16;70618.47;;;-143.00;100.00
1776;BME280;885;42.626;23.200;2023-05-10T06:29:43;70618.47;;;-143.00;100.00
1776;BME280;885;42.626;23.200;2023-05-10T06:32:10;70618.47;;;-143.00;100.00
1776;BME280;885;42.626;23.200;2023-05-10T06:34:37;70618.47;;;-143.00;100.00
1776;BME280;885;42.626;23.200;2023-05-10T06:37:05;70618.47;;;-143.00;100.00
1776;BME280;885;42.626;23.200;2023-05-10T06:39:31;70618.47;;;-143.00;100.00
1776;BME280;885;42.626;23.200;2023-05-10T06:41:58;70618.47;;;-143.00;100.00
1776;BME280;885;42.626;23.200;2023-05-10T06:44:25;70618.47;;;-143.00;100.00
1776;BME280;885;42.626;23.200;2023-05-10T06:46:51;70618.47;;;-143.00;100.00
1776;BME280;885;42.626;23.200;2023-05-10T06:49:20;70618.47;;;-143.00;100.00
1776;BME280;885;42.626;23.200;2023-05-10T06:51:47;70618.47;;;-143.00;100.00
1776;BME280;885;42.626;23.200;2023-05-10T06:54:15;70618.47;;;-143.00;100.00
1776;BME280;885;42.626;23.200;2023-05-10T06:56:43;70618.47;;;-143.00;100.00
1776;BME280;885;42.626;23.200;2023-05-10T06:59:10;70618.47;;;-143.00;100.00
1776;BME280;885;42.626;23.200;2023-05-10T07:01:37;70618.47;;;-143.00;100.00
1776;BME280;885;42.626;23.200;2023-05-10T07:04:05;70618.47;;;-143.00;100.00
1776;BME280;885;42.626;23.200;2023-05-10T07:22:48;167609.84;;;9.05;100.00
1776;BME280;885;42.626;23.200;2023-05-10T07:25:15;167626.38;;;9.11;100.00
1776;BME280;885;42.626;23.200;2023-05-10T07:27:42;167629.16;;;9.12;100.00
1776;BME280;885;42.626;23.200;2023-05-10T07:30:09;167627.75;;;9.12;100.00
1776;BME280;885;42.626;23.200;2023-05-10T07:32:36;167642.94;;;9.17;100.00
1776;BME280;885;42.626;23.200;2023-05-10T07:35:05;167653.97;;;9.21;100.00
1776;BME280;885;42.626;23.200;2023-05-10T07:37:32;167677.41;;;9.30;100.00
1776;BME280;885;42.626;23.200;2023-05-10T07:40:00;167695.25;;;9.36;100.00
1776;BME280;885;42.626;23.200;2023-05-10T07:42:26;167706.34;;;9.40;100.00
1776;BME280;885;42.626;23.200;2023-05-10T07:44:53;167687.03;;;9.33;100.00
1776;BME280;885;42.626;23.200;2023-05-10T07:47:20;167660.81;;;9.24;100.00
1776;BME280;885;42.626;23.200;2023-05-10T07:49:46;167637.44;;;9.15;100.00
1776;BME280;885;42.626;23.200;2023-05-10T07:52:13;167615.34;;;9.07;100.00
1776;BME280;885;42.626;23.200;2023-05-10T07:54:40;167634.66;;;9.14;100.00
1776;BME280;885;42.626;23.200;2023-05-10T07:57:08;167660.81;;;9.24;100.00
1776;BME280;885;42.626;23.200;2023-05-10T07:59:35;167684.25;;;9.32;100.00
1776;BME280;885;42.626;23.200;2023-05-10T08:02:02;167692.53;;;9.35;100.00
1776;BME280;885;42.626;23.200;2023-05-10T08:04:28;167720.09;;;9.45;100.00
1776;BME280;885;42.626;23.200;2023-05-10T08:06:55;167725.59;;;9.47;100.00
1776;BME280;885;42.626;23.200;2023-05-10T08:09:22;167740.72;;;9.53;100.00
1776;BME280;885;42.626;23.200;2023-05-10T08:11:49;167753.13;;;9.57;100.00
1776;BME280;885;42.626;23.200;2023-05-10T08:14:17;167762.81;;;9.61;100.00
1776;BME280;885;42.626;23.200;2023-05-10T08:16:44;167791.78;;;9.72;100.00
1776;BME280;885;42.626;23.200;2023-05-10T08:19:10;167824.84;;;9.84;100.00
1776;BME280;885;42.626;23.200;2023-05-10T08:21:37;167842.75;;;9.90;100.00
1776;BME280;885;42.626;23.200;2023-05-10T08:24:06;167846.88;;;9.92;100.00
1776;BME280;885;42.626;23.200;2023-05-10T08:26:33;167879.97;;;10.04;100.00
1776;BME280;885;42.626;23.200;2023-05-10T08:29:00;167924.16;;;10.20;100.00
1776;BME280;885;42.626;23.200;2023-05-10T08:31:28;167943.44;;;10.27;100.00
1776;BME280;885;42.626;23.200;2023-05-10T08:33:55;167957.25;;;10.32;100.00
1776;BME280;885;42.626;23.200;2023-05-10T08:36:21;167973.78;;;10.38;100.00
1776;BME280;885;42.626;23.200;2023-05-10T08:38:50;167979.31;;;10.40;100.00
1776;BME280;885;42.626;23.200;2023-05-10T08:41:19;167994.44;;;10.46;100.00
1776;BME280;885;42.626;23.200;2023-05-10T08:43:47;168023.41;;;10.56;100.00
1776;BME280;885;42.626;23.200;2023-05-10T08:46:16;168048.25;;;10.65;100.00
1776;BME280;885;42.626;23.200;2023-05-10T08:48:45;168073.09;;;10.74;100.00
1776;BME280;885;42.626;23.200;2023-05-10T08:51:13;168093.78;;;10.82;100.00
1776;BME280;885;42.626;23.200;2023-05-10T08:53:41;168119.97;;;10.91;100.00
1776;BME280;885;42.626;23.200;2023-05-10T08:56:08;168137.91;;;10.98;100.00
1776;BME280;885;42.626;23.200;2023-05-10T08:58:36;168159.97;;;11.06;100.00
1776;BME280;885;42.626;23.200;2023-05-10T09:01:03;168176.59;;;11.12;100.00
1776;BME280;885;42.626;23.200;2023-05-10T09:03:30;168161.38;;;11.06;100.00
1776;BME280;885;42.626;23.200;2023-05-10T09:05:59;168165.53;;;11.08;100.00
1776;BME280;885;42.626;23.200;2023-05-10T09:08:26;168186.22;;;11.15;100.00
1776;BME280;885;42.626;23.200;2023-05-10T09:10:53;168183.44;;;11.14;100.00
1776;BME280;885;42.626;23.200;2023-05-10T09:13:21;168180.69;;;11.13;100.00
1776;BME280;885;42.626;23.200;2023-05-10T09:15:49;168179.31;;;11.13;100.00
1776;BME280;885;42.626;23.200;2023-05-10T09:18:17;168165.53;;;11.08;100.00
1776;BME280;885;42.626;23.200;2023-05-10T09:20:43;168184.81;;;11.15;100.00
1776;BME280;885;42.626;23.200;2023-05-10T09:23:12;168216.59;;;11.27;100.00
1776;BME280;885;42.626;23.200;2023-05-10T09:25:41;168252.44;;;11.40;100.00
1776;BME280;885;42.626;23.200;2023-05-10T09:28:08;168293.84;;;11.55;100.00
1776;BME280;885;42.626;23.200;2023-05-10T09:30:36;168307.66;;;11.60;100.00
1776;BME280;885;42.626;23.200;2023-05-10T09:33:03;168307.66;;;11.60;100.00
1776;BME280;885;42.626;23.200;2023-05-10T09:35:38;168365.72;;;11.81;100.00
1776;BME280;885;42.626;23.200;2023-05-10T09:38:05;168409.88;;;11.97;100.00
1776;BME280;885;42.626;23.200;2023-05-10T09:40:33;168467.88;;;12.18;100.00
1776;BME280;885;42.626;23.200;2023-05-10T09:43:01;168488.56;;;12.26;100.00
1776;BME280;885;42.626;23.200;2023-05-10T09:45:30;168470.59;;;12.19;100.00
1776;BME280;885;42.626;23.200;2023-05-10T09:47:57;168507.91;;;12.33;100.00
1776;BME280;885;42.626;23.200;2023-05-10T09:50:26;168556.28;;;12.50;100.00
1776;BME280;885;42.626;23.200;2023-05-10T09:52:54;168567.31;;;12.54;100.00
1776;BME280;885;42.626;23.200;2023-05-10T09:55:24;168536.91;;;12.43;100.00
1776;BME280;885;42.626;23.200;2023-05-10T09:58:00;168564.53;;;12.53;100.00
1776;BME280;885;42.626;23.200;2023-05-10T10:00:28;168592.13;;;12.63;100.00
1776;BME280;885;42.626;23.200;2023-05-10T10:02:56;168586.63;;;12.61;100.00
1776;BME280;885;42.626;23.200;2023-05-10T10:05:28;168586.63;;;12.61;100.00
1776;BME280;885;42.626;23.200;2023-05-10T10:07:55;168614.22;;;12.71;100.00
1776;BME280;885;42.626;23.200;2023-05-10T10:10:23;168621.16;;;12.74;100.00
1776;BME280;885;42.626;23.200;2023-05-10T10:12:50;168622.53;;;12.74;100.00
1776;BME280;885;42.626;23.200;2023-05-10T10:15:20;168603.19;;;12.67;100.00
1776;BME280;885;42.626;23.200;2023-05-10T10:17:48;168614.22;;;12.71;100.00
1776;BME280;885;42.626;23.200;2023-05-10T10:20:15;168617.03;;;12.72;97.79
1776;BME280;885;42.626;23.200;2023-05-10T10:22:42;168589.41;;;12.62;97.95
1776;BME280;885;42.626;23.200;2023-05-10T10:25:11;168564.53;;;12.53;98.79
1776;BME280;885;42.626;23.200;2023-05-10T10:27:45;168560.41;;;12.52;98.38
1776;BME280;885;42.626;23.200;2023-05-10T10:30:34;168524.47;;;12.39;98.49
1776;BME280;885;42.626;23.200;2023-05-10T10:33:13;168520.34;;;12.37;99.90
1776;BME280;885;42.626;23.200;2023-05-10T10:35:45;168495.47;;;12.28;100.00
1776;BME280;885;42.626;23.200;2023-05-10T10:38:13;168509.31;;;12.33;100.00
1776;BME280;885;42.626;23.200;2023-05-10T10:40:40;168514.81;;;12.35;99.84
1776;BME280;885;42.626;23.200;2023-05-10T10:43:22;168523.06;;;12.38;99.33
1776;BME280;885;42.626;23.200;2023-05-10T10:46:10;168545.16;;;12.46;99.42
1776;BME280;885;42.626;23.200;2023-05-10T10:48:38;168547.97;;;12.47;98.59
1776;BME280;885;42.626;23.200;2023-05-10T10:51:05;168572.84;;;12.56;98.80
1776;BME280;885;42.626;23.200;2023-05-10T10:53:32;168550.69;;;12.48;99.63
1776;BME280;885;42.626;23.200;2023-05-10T10:56:06;168520.34;;;12.37;97.04
1776;BME280;885;42.626;23.200;2023-05-10T10:58:35;168499.59;;;12.30;97.87
1776;BME280;885;42.626;23.200;2023-05-10T11:01:21;168491.34;;;12.27;98.16
1776;BME280;885;42.626;23.200;2023-05-10T11:04:18;168459.56;;;12.15;98.67
1776;BME280;885;42.626;23.200;2023-05-10T11:06:46;168463.72;;;12.17;99.20
1776;BME280;885;42.626;23.200;2023-05-10T11:09:12;168460.94;;;12.16;98.62
1776;BME280;885;42.626;23.200;2023-05-10T11:11:50;168473.38;;;12.20;97.06
1776;BME280;885;42.626;23.200;2023-05-10T11:14:20;168484.44;;;12.24;95.84
1776;BME280;885;42.626;23.200;2023-05-10T11:16:49;168488.56;;;12.26;95.33
1776;BME280;885;42.626;23.200;2023-05-10T11:19:17;168467.88;;;12.18;97.76
1776;BME280;885;42.626;23.200;2023-05-10T11:21:45;168440.25;;;12.08;97.70
1776;BME280;885;42.626;23.200;2023-05-10T11:24:14;168414.00;;;11.98;99.25
1776;BME280;885;42.626;23.200;2023-05-10T11:26:42;168416.78;;;12.00;99.18
1776;BME280;885;42.626;23.200;2023-05-10T11:29:08;168371.22;;;11.83;99.65
1776;BME280;885;42.626;23.200;2023-05-10T11:31:42;168358.78;;;11.78;100.00
1776;BME280;885;42.626;23.200;2023-05-10T11:34:10;168320.09;;;11.64;100.00
1776;BME280;885;42.626;23.200;2023-05-10T11:36:38;168318.72;;;11.64;100.00
1776;BME280;885;42.626;23.200;2023-05-10T11:39:05;168321.44;;;11.65;100.00
1776;BME280;885;42.626;23.200;2023-05-10T11:41:32;168315.91;;;11.63;100.00
1776;BME280;885;42.626;23.200;2023-05-10T11:43:59;168329.81;;;11.68;100.00
1776;BME280;885;42.626;23.200;2023-05-10T11:46:27;168342.22;;;11.72;100.00
1776;BME280;885;42.626;23.200;2023-05-10T11:48:56;168346.34;;;11.74;100.00
1776;BME280;885;42.626;23.200;2023-05-10T11:51:25;168365.72;;;11.81;100.00
1776;BME280;885;42.626;23.200;2023-05-10T11:53:54;168385.00;;;11.88;100.00
1776;BME280;885;42.626;23.200;2023-05-10T11:56:21;168365.72;;;11.81;99.72
1776;BME280;885;42.626;23.200;2023-05-10T11:58:53;168364.31;;;11.80;99.81
1776;BME280;885;42.626;23.200;2023-05-10T12:01:21;168385.00;;;11.88;99.38
1776;BME280;885;42.626;23.200;2023-05-10T12:03:48;168402.94;;;11.94;99.57
1776;BME280;885;42.626;23.200;2023-05-10T12:06:15;168434.75;;;12.06;99.44
1776;BME280;885;42.626;23.200;2023-05-10T12:08:46;168470.59;;;12.19;98.75
1776;BME280;885;42.626;23.200;2023-05-10T12:11:15;168509.31;;;12.33;97.98
1776;BME280;885;42.626;23.200;2023-05-10T12:13:43;168549.34;;;12.48;95.92
1776;BME280;885;42.626;23.200;2023-05-10T12:16:16;168597.66;;;12.65;96.18
1776;BME280;885;42.626;23.200;2023-05-10T12:18:43;168630.84;;;12.77;94.25
1776;BME280;885;42.626;23.200;2023-05-10T12:21:10;168608.72;;;12.69;92.20
1776;BME280;885;42.626;23.200;2023-05-10T12:23:38;168567.31;;;12.54;94.51
1776;BME280;885;42.626;23.200;2023-05-10T12:26:09;168523.06;;;12.38;94.30
1776;BME280;885;42.626;23.200;2023-05-10T12:28:37;168517.56;;;12.36;93.74
1776;BME280;885;42.626;23.200;2023-05-10T12:31:05;168499.59;;;12.30;92.81
1776;BME280;885;42.626;23.200;2023-05-10T12:33:36;168478.91;;;12.22;93.71
1776;BME280;885;42.626;23.200;2023-05-10T12:36:05;168455.44;;;12.14;93.75
1776;BME280;885;42.626;23.200;2023-05-10T12:38:33;168437.47;;;12.07;94.97
1776;BME280;885;42.626;23.200;2023-05-10T12:41:01;168422.28;;;12.02;95.01
1776;BME280;885;42.626;23.200;2023-05-10T12:43:30;168385.00;;;11.88;95.96
1776;BME280;885;42.626;23.200;2023-05-10T12:45:57;168361.53;;;11.79;96.92
1776;BME280;885;42.626;23.200;2023-05-10T12:48:24;168350.47;;;11.75;97.26
1776;BME280;885;42.626;23.200;2023-05-10T12:50:51;168333.94;;;11.69;97.15
1776;BME280;885;42.626;23.200;2023-05-10T12:53:18;168328.41;;;11.67;98.10
1776;BME280;885;42.626;23.200;2023-05-10T12:55:45;168303.50;;;11.58;100.00
1776;BME280;885;42.626;23.200;2023-05-10T12:58:11;168318.72;;;11.64;100.00
1776;BME280;885;42.626;23.200;2023-05-10T13:00:39;168332.53;;;11.69;99.57
1776;BME280;885;42.626;23.200;2023-05-10T13:03:06;168333.94;;;11.69;100.00
1776;BME280;885;42.626;23.200;2023-05-10T13:05:33;168327.00;;;11.67;100.00
1776;BME280;885;42.626;23.200;2023-05-10T13:08:00;168318.72;;;11.64;99.17
1776;BME280;885;42.626;23.200;2023-05-10T13:10:28;168327.00;;;11.67;98.63
1776;BME280;885;42.626;23.200;2023-05-10T13:12:55;168318.72;;;11.64;100.00
1776;BME280;885;42.626;23.200;2023-05-10T13:15:22;168338.06;;;11.71;100.00
1776;BME280;885;42.626;23.200;2023-05-10T13:17:50;168321.44;;;11.65;100.00
1776;BME280;885;42.626;23.200;2023-05-10T13:20:17;168313.19;;;11.62;100.00
1776;BME280;885;42.626;23.200;2023-05-10T13:22:44;168313.19;;;11.62;100.00